sensor_id;sensor_type;location;lat;lon;timestamp;temperature;humidity
46720;DHT22;32452;51.382;-0.002;2023-05-18T00:01:34;13.00;80.00
46720;DHT22;32452;51.382;-0.002;2023-05-18T00:04:25;13.00;79.90
46720;DHT22;32452;51.382;-0.002;2023-05-18T00:07:10;13.00;79.90
46720;DHT22;32452;51.382;-0.002;2023-05-18T00:09:57;13.00;79.70
46720;DHT22;32452;51.382;-0.002;2023-05-18T00:12:43;13.00;79.50
46720;DHT22;32452;51.382;-0.002;2023-05-18T00:15:28;12.90;79.30
46720;DHT22;32452;51.382;-0.002;2023-05-18T00:18:14;12.90;79.00
46720;DHT22;32452;51.382;-0.002;2023-05-18T00:21:00;12.90;78.70
46720;DHT22;32452;51.382;-0.002;2023-05-18T00:23:46;12.90;78.70
46720;DHT22;32452;51.382;-0.002;2023-05-18T00:26:34;12.80;78.60
46720;DHT22;32452;51.382;-0.002;2023-05-18T00:29:19;12.80;78.50
46720;DHT22;32452;51.382;-0.002;2023-05-18T00:32:05;12.80;78.60
46720;DHT22;32452;51.382;-0.002;2023-05-18T00:34:51;12.70;78.50
46720;DHT22;32452;51.382;-0.002;2023-05-18T00:37:37;12.70;78.40
46720;DHT22;32452;51.382;-0.002;2023-05-18T00:40:23;12.70;78.30
46720;DHT22;32452;51.382;-0.002;2023-05-18T00:43:10;12.70;78.20
46720;DHT22;32452;51.382;-0.002;2023-05-18T00:45:56;12.60;78.20
46720;DHT22;32452;51.382;-0.002;2023-05-18T00:48:42;12.60;78.20
46720;DHT22;32452;51.382;-0.002;2023-05-18T00:51:28;12.60;78.30
46720;DHT22;32452;51.382;-0.002;2023-05-18T00:54:16;12.60;78.30
46720;DHT22;32452;51.382;-0.002;2023-05-18T00:57:03;12.60;78.30
46720;DHT22;32452;51.382;-0.002;2023-05-18T00:59:49;12.50;78.30
46720;DHT22;32452;51.382;-0.002;2023-05-18T01:02:36;12.50;78.40
46720;DHT22;32452;51.382;-0.002;2023-05-18T01:05:26;12.50;78.50
46720;DHT22;32452;51.382;-0.002;2023-05-18T01:08:12;12.50;78.50
46720;DHT22;32452;51.382;-0.002;2023-05-18T01:11:06;12.50;78.80
46720;DHT22;32452;51.382;-0.002;2023-05-18T01:17:08;12.40;79.00
46720;DHT22;32452;51.382;-0.002;2023-05-18T01:29:04;12.40;79.70
46720;DHT22;32452;51.382;-0.002;2023-05-18T01:31:51;12.40;80.00
46720;DHT22;32452;51.382;-0.002;2023-05-18T01:34:36;12.40;80.20
46720;DHT22;32452;51.382;-0.002;2023-05-18T01:37:22;12.40;80.50
46720;DHT22;32452;51.382;-0.002;2023-05-18T01:40:08;12.40;80.80
46720;DHT22;32452;51.382;-0.002;2023-05-18T01:42:58;12.40;81.00
46720;DHT22;32452;51.382;-0.002;2023-05-18T01:45:50;12.40;81.40
46720;DHT22;32452;51.382;-0.002;2023-05-18T01:48:43;12.30;81.50
46720;DHT22;32452;51.382;-0.002;2023-05-18T01:51:34;12.30;81.70
46720;DHT22;32452;51.382;-0.002;2023-05-18T01:54:21;12.30;82.00
46720;DHT22;32452;51.382;-0.002;2023-05-18T01:57:07;12.30;82.30
46720;DHT22;32452;51.382;-0.002;2023-05-18T01:59:53;12.30;82.60
46720;DHT22;32452;51.382;-0.002;2023-05-18T02:02:39;12.30;82.90
46720;DHT22;32452;51.382;-0.002;2023-05-18T02:05:25;12.20;82.90
46720;DHT22;32452;51.382;-0.002;2023-05-18T02:08:11;12.20;83.20
46720;DHT22;32452;51.382;-0.002;2023-05-18T02:10:56;12.20;83.50
46720;DHT22;32452;51.382;-0.002;2023-05-18T02:13:42;12.20;83.70
46720;DHT22;32452;51.382;-0.002;2023-05-18T02:16:27;12.20;84.00
46720;DHT22;32452;51.382;-0.002;2023-05-18T02:19:13;12.20;84.40
46720;DHT22;32452;51.382;-0.002;2023-05-18T02:21:59;12.20;84.60
46720;DHT22;32452;51.382;-0.002;2023-05-18T02:24:45;12.20;84.80
46720;DHT22;32452;51.382;-0.002;2023-05-18T02:27:30;12.20;85.00
46720;DHT22;32452;51.382;-0.002;2023-05-18T02:30:18;12.20;85.00
46720;DHT22;32452;51.382;-0.002;2023-05-18T02:33:03;12.10;85.10
46720;DHT22;32452;51.382;-0.002;2023-05-18T02:35:50;12.10;85.30
46720;DHT22;32452;51.382;-0.002;2023-05-18T02:38:37;12.10;85.70
46720;DHT22;32452;51.382;-0.002;2023-05-18T02:41:23;12.10;86.00
46720;DHT22;32452;51.382;-0.002;2023-05-18T02:44:08;12.10;86.20
46720;DHT22;32452;51.382;-0.002;2023-05-18T02:46:56;12.00;86.40
46720;DHT22;32452;51.382;-0.002;2023-05-18T02:49:42;12.00;86.60
46720;DHT22;32452;51.382;-0.002;2023-05-18T02:52:27;12.00;86.90
46720;DHT22;32452;51.382;-0.002;2023-05-18T02:55:13;12.00;87.10
46720;DHT22;32452;51.382;-0.002;2023-05-18T02:57:59;12.00;87.20
46720;DHT22;32452;51.382;-0.002;2023-05-18T03:00:47;12.00;87.30
46720;DHT22;32452;51.382;-0.002;2023-05-18T03:03:33;11.90;87.50
46720;DHT22;32452;51.382;-0.002;2023-05-18T03:06:19;11.90;87.80
46720;DHT22;32452;51.382;-0.002;2023-05-18T03:09:11;11.90;88.90
46720;DHT22;32452;51.382;-0.002;2023-05-18T03:11:57;11.80;88.30
46720;DHT22;32452;51.382;-0.002;2023-05-18T03:14:42;11.70;88.60
46720;DHT22;32452;51.382;-0.002;2023-05-18T03:17:28;11.70;89.00
46720;DHT22;32452;51.382;-0.002;2023-05-18T03:20:14;11.60;89.30
46720;DHT22;32452;51.382;-0.002;2023-05-18T03:23:00;11.60;89.50
46720;DHT22;32452;51.382;-0.002;2023-05-18T03:25:45;11.60;89.70
46720;DHT22;32452;51.382;-0.002;2023-05-18T03:28:31;11.60;89.90
46720;DHT22;32452;51.382;-0.002;2023-05-18T03:31:17;11.60;90.00
46720;DHT22;32452;51.382;-0.002;2023-05-18T03:34:03;11.60;90.20
46720;DHT22;32452;51.382;-0.002;2023-05-18T03:36:48;11.60;90.30
46720;DHT22;32452;51.382;-0.002;2023-05-18T03:39:35;11.60;90.30
46720;DHT22;32452;51.382;-0.002;2023-05-18T03:42:21;11.50;90.40
46720;DHT22;32452;51.382;-0.002;2023-05-18T03:45:08;11.50;90.50
46720;DHT22;32452;51.382;-0.002;2023-05-18T03:47:53;11.50;90.60
46720;DHT22;32452;51.382;-0.002;2023-05-18T03:50:39;11.40;90.70
46720;DHT22;32452;51.382;-0.002;2023-05-18T03:53:25;11.40;90.90
46720;DHT22;32452;51.382;-0.002;2023-05-18T03:56:10;11.30;91.00
46720;DHT22;32452;51.382;-0.002;2023-05-18T03:58:57;11.30;91.20
46720;DHT22;32452;51.382;-0.002;2023-05-18T04:01:43;11.20;91.30
46720;DHT22;32452;51.382;-0.002;2023-05-18T04:04:28;11.20;91.40
46720;DHT22;32452;51.382;-0.002;2023-05-18T04:07:15;11.20;91.50
46720;DHT22;32452;51.382;-0.002;2023-05-18T04:10:00;11.10;91.60
46720;DHT22;32452;51.382;-0.002;2023-05-18T04:12:46;11.10;91.80
46720;DHT22;32452;51.382;-0.002;2023-05-18T04:15:32;11.10;91.90
46720;DHT22;32452;51.382;-0.002;2023-05-18T04:18:17;11.00;92.00
46720;DHT22;32452;51.382;-0.002;2023-05-18T04:21:04;11.00;92.10
46720;DHT22;32452;51.382;-0.002;2023-05-18T04:23:51;10.90;92.50
46720;DHT22;32452;51.382;-0.002;2023-05-18T04:26:36;10.90;92.30
46720;DHT22;32452;51.382;-0.002;2023-05-18T04:29:22;10.90;92.40
46720;DHT22;32452;51.382;-0.002;2023-05-18T04:32:08;10.90;92.50
46720;DHT22;32452;51.382;-0.002;2023-05-18T04:34:55;10.80;92.50
46720;DHT22;32452;51.382;-0.002;2023-05-18T04:37:42;10.80;92.70
46720;DHT22;32452;51.382;-0.002;2023-05-18T04:40:28;10.80;92.80
46720;DHT22;32452;51.382;-0.002;2023-05-18T04:43:19;10.70;93.00
46720;DHT22;32452;51.382;-0.002;2023-05-18T04:46:05;10.70;93.10
46720;DHT22;32452;51.382;-0.002;2023-05-18T04:48:51;10.70;93.30
46720;DHT22;32452;51.382;-0.002;2023-05-18T04:51:37;10.70;93.40
46720;DHT22;32452;51.382;-0.002;2023-05-18T04:54:28;10.70;93.50
46720;DHT22;32452;51.382;-0.002;2023-05-18T04:57:17;10.70;93.60
46720;DHT22;32452;51.382;-0.002;2023-05-18T05:00:02;10.70;93.50
46720;DHT22;32452;51.382;-0.002;2023-05-18T05:02:50;10.70;93.60
46720;DHT22;32452;51.382;-0.002;2023-05-18T05:05:36;10.60;93.60
46720;DHT22;32452;51.382;-0.002;2023-05-18T05:08:21;10.70;93.70
46720;DHT22;32452;51.382;-0.002;2023-05-18T05:11:07;10.70;93.80
46720;DHT22;32452;51.382;-0.002;2023-05-18T05:13:52;10.70;93.90
46720;DHT22;32452;51.382;-0.002;2023-05-18T05:16:38;10.70;94.00
46720;DHT22;32452;51.382;-0.002;2023-05-18T05:19:24;10.70;94.10
46720;DHT22;32452;51.382;-0.002;2023-05-18T05:22:10;10.80;94.20
46720;DHT22;32452;51.382;-0.002;2023-05-18T05:24:55;10.80;94.20
46720;DHT22;32452;51.382;-0.002;2023-05-18T05:27:41;10.90;94.30
46720;DHT22;32452;51.382;-0.002;2023-05-18T05:30:26;10.90;94.30
46720;DHT22;32452;51.382;-0.002;2023-05-18T05:33:12;11.00;94.30
46720;DHT22;32452;51.382;-0.002;2023-05-18T05:35:58;11.00;94.30
46720;DHT22;32452;51.382;-0.002;2023-05-18T05:38:43;11.10;94.30
46720;DHT22;32452;51.382;-0.002;2023-05-18T05:41:28;11.10;94.40
46720;DHT22;32452;51.382;-0.002;2023-05-18T05:44:16;11.20;94.40
46720;DHT22;32452;51.382;-0.002;2023-05-18T05:47:02;11.30;94.40
46720;DHT22;32452;51.382;-0.002;2023-05-18T05:49:48;11.40;94.40
46720;DHT22;32452;51.382;-0.002;2023-05-18T05:52:34;11.50;94.40
46720;DHT22;32452;51.382;-0.002;2023-05-18T05:55:19;11.60;94.30
46720;DHT22;32452;51.382;-0.002;2023-05-18T05:58:06;11.60;94.10
46720;DHT22;32452;51.382;-0.002;2023-05-18T06:00:51;11.70;94.10
46720;DHT22;32452;51.382;-0.002;2023-05-18T06:03:37;11.80;94.10
46720;DHT22;32452;51.382;-0.002;2023-05-18T06:06:27;12.10;94.00
46720;DHT22;32452;51.382;-0.002;2023-05-18T06:09:33;12.40;93.70
46720;DHT22;32452;51.382;-0.002;2023-05-18T06:12:18;12.70;93.40
46720;DHT22;32452;51.382;-0.002;2023-05-18T06:15:04;13.00;93.20
46720;DHT22;32452;51.382;-0.002;2023-05-18T06:17:50;13.40;92.70
46720;DHT22;32452;51.382;-0.002;2023-05-18T06:20:39;13.70;91.90
46720;DHT22;32452;51.382;-0.002;2023-05-18T06:23:25;14.20;91.20
46720;DHT22;32452;51.382;-0.002;2023-05-18T06:26:11;14.60;90.50
46720;DHT22;32452;51.382;-0.002;2023-05-18T06:28:56;15.30;89.00
46720;DHT22;32452;51.382;-0.002;2023-05-18T06:31:42;16.00;86.10
46720;DHT22;32452;51.382;-0.002;2023-05-18T06:34:28;16.50;82.70
46720;DHT22;32452;51.382;-0.002;2023-05-18T06:37:17;17.10;80.10
46720;DHT22;32452;51.382;-0.002;2023-05-18T06:40:04;17.40;77.20
46720;DHT22;32452;51.382;-0.002;2023-05-18T06:42:51;17.80;75.20
46720;DHT22;32452;51.382;-0.002;2023-05-18T06:45:37;18.20;73.20
46720;DHT22;32452;51.382;-0.002;2023-05-18T06:48:26;18.40;71.60
46720;DHT22;32452;51.382;-0.002;2023-05-18T06:51:11;18.60;70.00
46720;DHT22;32452;51.382;-0.002;2023-05-18T06:53:57;18.90;69.10
46720;DHT22;32452;51.382;-0.002;2023-05-18T06:56:42;19.20;68.00
46720;DHT22;32452;51.382;-0.002;2023-05-18T06:59:28;19.50;66.60
46720;DHT22;32452;51.382;-0.002;2023-05-18T07:02:14;19.80;65.30
46720;DHT22;32452;51.382;-0.002;2023-05-18T07:04:59;20.10;64.20
46720;DHT22;32452;51.382;-0.002;2023-05-18T07:07:46;20.30;62.50
46720;DHT22;32452;51.382;-0.002;2023-05-18T07:10:32;20.50;61.00
46720;DHT22;32452;51.382;-0.002;2023-05-18T07:13:18;20.60;59.70
46720;DHT22;32452;51.382;-0.002;2023-05-18T07:16:05;20.70;59.20
46720;DHT22;32452;51.382;-0.002;2023-05-18T07:18:51;20.80;58.70
46720;DHT22;32452;51.382;-0.002;2023-05-18T07:21:37;20.90;58.20
46720;DHT22;32452;51.382;-0.002;2023-05-18T07:24:22;21.00;57.40
46720;DHT22;32452;51.382;-0.002;2023-05-18T07:27:08;21.30;56.80
46720;DHT22;32452;51.382;-0.002;2023-05-18T07:29:53;21.40;55.60
46720;DHT22;32452;51.382;-0.002;2023-05-18T07:32:39;21.60;54.70
46720;DHT22;32452;51.382;-0.002;2023-05-18T07:35:25;21.80;53.70
46720;DHT22;32452;51.382;-0.002;2023-05-18T07:38:10;22.00;52.90
46720;DHT22;32452;51.382;-0.002;2023-05-18T07:40:56;22.10;51.60
46720;DHT22;32452;51.382;-0.002;2023-05-18T07:43:44;22.10;50.20
46720;DHT22;32452;51.382;-0.002;2023-05-18T07:46:29;22.20;48.80
46720;DHT22;32452;51.382;-0.002;2023-05-18T07:49:15;22.40;46.90
46720;DHT22;32452;51.382;-0.002;2023-05-18T07:52:01;22.50;45.80
46720;DHT22;32452;51.382;-0.002;2023-05-18T07:54:46;22.70;45.00
46720;DHT22;32452;51.382;-0.002;2023-05-18T07:57:33;22.90;45.00
46720;DHT22;32452;51.382;-0.002;2023-05-18T08:00:20;23.00;44.40
46720;DHT22;32452;51.382;-0.002;2023-05-18T08:03:06;23.00;44.80
46720;DHT22;32452;51.382;-0.002;2023-05-18T08:05:52;22.90;45.30
46720;DHT22;32452;51.382;-0.002;2023-05-18T08:08:37;22.90;45.10
46720;DHT22;32452;51.382;-0.002;2023-05-18T08:11:23;23.00;45.00
46720;DHT22;32452;51.382;-0.002;2023-05-18T08:14:09;23.00;44.90
46720;DHT22;32452;51.382;-0.002;2023-05-18T08:16:54;23.20;45.20
46720;DHT22;32452;51.382;-0.002;2023-05-18T08:19:40;23.30;44.80
46720;DHT22;32452;51.382;-0.002;2023-05-18T08:22:26;23.40;44.60
46720;DHT22;32452;51.382;-0.002;2023-05-18T08:25:11;23.40;44.70
46720;DHT22;32452;51.382;-0.002;2023-05-18T08:27:57;23.20;44.80
46720;DHT22;32452;51.382;-0.002;2023-05-18T08:30:42;23.10;44.90
46720;DHT22;32452;51.382;-0.002;2023-05-18T08:33:28;23.10;45.00
46720;DHT22;32452;51.382;-0.002;2023-05-18T08:36:13;23.30;44.70
46720;DHT22;32452;51.382;-0.002;2023-05-18T08:38:59;23.60;44.50
46720;DHT22;32452;51.382;-0.002;2023-05-18T08:42:28;23.90;44.10
46720;DHT22;32452;51.382;-0.002;2023-05-18T08:45:31;24.20;42.90
46720;DHT22;32452;51.382;-0.002;2023-05-18T08:48:21;24.30;41.90
46720;DHT22;32452;51.382;-0.002;2023-05-18T08:51:12;23.90;42.30
46720;DHT22;32452;51.382;-0.002;2023-05-18T08:53:59;23.60;42.90
46720;DHT22;32452;51.382;-0.002;2023-05-18T08:56:45;23.60;43.60
46720;DHT22;32452;51.382;-0.002;2023-05-18T08:59:32;23.80;43.50
46720;DHT22;32452;51.382;-0.002;2023-05-18T09:02:21;24.00;43.10
46720;DHT22;32452;51.382;-0.002;2023-05-18T09:05:07;24.00;43.20
46720;DHT22;32452;51.382;-0.002;2023-05-18T09:07:54;24.00;42.30
46720;DHT22;32452;51.382;-0.002;2023-05-18T09:10:40;24.10;42.40
46720;DHT22;32452;51.382;-0.002;2023-05-18T09:13:26;24.20;42.80
46720;DHT22;32452;51.382;-0.002;2023-05-18T09:16:12;24.40;42.50
46720;DHT22;32452;51.382;-0.002;2023-05-18T09:18:57;24.60;42.30
46720;DHT22;32452;51.382;-0.002;2023-05-18T09:21:43;24.80;42.50
46720;DHT22;32452;51.382;-0.002;2023-05-18T09:24:29;24.80;42.10
46720;DHT22;32452;51.382;-0.002;2023-05-18T09:27:14;24.80;42.30
46720;DHT22;32452;51.382;-0.002;2023-05-18T09:30:00;24.70;42.30
46720;DHT22;32452;51.382;-0.002;2023-05-18T09:32:46;24.70;42.00
46720;DHT22;32452;51.382;-0.002;2023-05-18T09:35:32;24.80;42.50
46720;DHT22;32452;51.382;-0.002;2023-05-18T09:38:20;24.80;42.30
46720;DHT22;32452;51.382;-0.002;2023-05-18T09:41:12;24.80;42.40
46720;DHT22;32452;51.382;-0.002;2023-05-18T09:44:00;24.40;43.10
46720;DHT22;32452;51.382;-0.002;2023-05-18T09:46:55;23.70;43.80
46720;DHT22;32452;51.382;-0.002;2023-05-18T09:49:41;23.70;44.70
46720;DHT22;32452;51.382;-0.002;2023-05-18T09:52:26;24.20;44.50
46720;DHT22;32452;51.382;-0.002;2023-05-18T09:55:15;24.60;43.70
46720;DHT22;32452;51.382;-0.002;2023-05-18T09:58:01;25.10;42.20
46720;DHT22;32452;51.382;-0.002;2023-05-18T10:00:49;25.50;41.70
46720;DHT22;32452;51.382;-0.002;2023-05-18T10:03:41;25.80;41.20
46720;DHT22;32452;51.382;-0.002;2023-05-18T10:06:30;26.00;40.90
46720;DHT22;32452;51.382;-0.002;2023-05-18T10:09:16;26.10;40.40
46720;DHT22;32452;51.382;-0.002;2023-05-18T10:12:02;26.20;40.60
46720;DHT22;32452;51.382;-0.002;2023-05-18T10:14:48;26.30;40.00
46720;DHT22;32452;51.382;-0.002;2023-05-18T10:17:35;26.30;38.90
46720;DHT22;32452;51.382;-0.002;2023-05-18T10:20:23;26.30;39.30
46720;DHT22;32452;51.382;-0.002;2023-05-18T10:23:11;26.40;39.70
46720;DHT22;32452;51.382;-0.002;2023-05-18T10:25:57;26.60;39.80
46720;DHT22;32452;51.382;-0.002;2023-05-18T10:28:44;26.80;39.30
46720;DHT22;32452;51.382;-0.002;2023-05-18T10:31:32;26.70;39.40
46720;DHT22;32452;51.382;-0.002;2023-05-18T10:34:19;26.90;39.70
46720;DHT22;32452;51.382;-0.002;2023-05-18T10:37:09;27.00;39.50
46720;DHT22;32452;51.382;-0.002;2023-05-18T10:39:58;27.00;39.20
46720;DHT22;32452;51.382;-0.002;2023-05-18T10:42:45;26.90;39.20
46720;DHT22;32452;51.382;-0.002;2023-05-18T10:45:34;27.10;39.20
46720;DHT22;32452;51.382;-0.002;2023-05-18T10:48:22;27.30;38.80
46720;DHT22;32452;51.382;-0.002;2023-05-18T10:51:08;27.40;38.40
46720;DHT22;32452;51.382;-0.002;2023-05-18T10:53:53;27.20;38.10
46720;DHT22;32452;51.382;-0.002;2023-05-18T10:56:47;26.80;38.00
46720;DHT22;32452;51.382;-0.002;2023-05-18T10:59:38;26.70;38.50
46720;DHT22;32452;51.382;-0.002;2023-05-18T11:02:27;26.60;39.30
46720;DHT22;32452;51.382;-0.002;2023-05-18T11:05:13;26.70;39.60
46720;DHT22;32452;51.382;-0.002;2023-05-18T11:07:59;26.70;39.30
46720;DHT22;32452;51.382;-0.002;2023-05-18T11:11:03;26.40;38.90
46720;DHT22;32452;51.382;-0.002;2023-05-18T11:13:51;26.10;39.20
46720;DHT22;32452;51.382;-0.002;2023-05-18T11:16:40;25.70;39.60
46720;DHT22;32452;51.382;-0.002;2023-05-18T11:19:26;25.60;39.70
46720;DHT22;32452;51.382;-0.002;2023-05-18T11:22:11;25.50;39.90
46720;DHT22;32452;51.382;-0.002;2023-05-18T11:24:57;25.30;40.10
46720;DHT22;32452;51.382;-0.002;2023-05-18T11:27:47;25.10;41.10
46720;DHT22;32452;51.382;-0.002;2023-05-18T11:33:26;25.00;40.90
46720;DHT22;32452;51.382;-0.002;2023-05-18T11:36:12;24.70;40.90
46720;DHT22;32452;51.382;-0.002;2023-05-18T11:39:03;24.50;41.60
46720;DHT22;32452;51.382;-0.002;2023-05-18T11:44:53;24.80;42.60
46720;DHT22;32452;51.382;-0.002;2023-05-18T11:47:41;24.80;42.40
46720;DHT22;32452;51.382;-0.002;2023-05-18T11:50:29;24.50;42.40
46720;DHT22;32452;51.382;-0.002;2023-05-18T11:53:15;24.10;43.30
46720;DHT22;32452;51.382;-0.002;2023-05-18T11:56:01;23.80;43.50
46720;DHT22;32452;51.382;-0.002;2023-05-18T11:59:13;23.60;43.70
46720;DHT22;32452;51.382;-0.002;2023-05-18T12:02:00;23.50;43.40
46720;DHT22;32452;51.382;-0.002;2023-05-18T12:04:48;23.30;43.40
46720;DHT22;32452;51.382;-0.002;2023-05-18T12:07:35;23.20;43.60
46720;DHT22;32452;51.382;-0.002;2023-05-18T12:10:22;23.20;44.10
46720;DHT22;32452;51.382;-0.002;2023-05-18T12:13:08;23.10;44.10
46720;DHT22;32452;51.382;-0.002;2023-05-18T12:15:54;23.00;44.60
46720;DHT22;32452;51.382;-0.002;2023-05-18T12:18:49;23.00;44.70
46720;DHT22;32452;51.382;-0.002;2023-05-18T12:21:36;22.90;44.30
46720;DHT22;32452;51.382;-0.002;2023-05-18T12:24:21;22.60;44.40
46720;DHT22;32452;51.382;-0.002;2023-05-18T12:27:08;22.30;44.90
46720;DHT22;32452;51.382;-0.002;2023-05-18T12:29:54;22.20;45.80
46720;DHT22;32452;51.382;-0.002;2023-05-18T12:32:48;22.30;46.10
46720;DHT22;32452;51.382;-0.002;2023-05-18T12:35:35;22.50;46.50
46720;DHT22;32452;51.382;-0.002;2023-05-18T12:38:24;22.70;46.30
46720;DHT22;32452;51.382;-0.002;2023-05-18T12:41:29;23.00;45.80
46720;DHT22;32452;51.382;-0.002;2023-05-18T12:44:14;22.90;45.50
46720;DHT22;32452;51.382;-0.002;2023-05-18T12:47:01;22.70;45.40
46720;DHT22;32452;51.382;-0.002;2023-05-18T12:49:49;22.60;45.50
46720;DHT22;32452;51.382;-0.002;2023-05-18T12:52:36;22.40;45.70
46720;DHT22;32452;51.382;-0.002;2023-05-18T12:55:22;22.30;46.40
46720;DHT22;32452;51.382;-0.002;2023-05-18T12:58:14;22.30;46.40
46720;DHT22;32452;51.382;-0.002;2023-05-18T13:01:07;22.20;46.40
46720;DHT22;32452;51.382;-0.002;2023-05-18T13:03:55;22.30;46.70
46720;DHT22;32452;51.382;-0.002;2023-05-18T13:06:42;22.20;46.80
46720;DHT22;32452;51.382;-0.002;2023-05-18T13:09:27;22.00;47.10
46720;DHT22;32452;51.382;-0.002;2023-05-18T13:12:13;21.90;47.20
46720;DHT22;32452;51.382;-0.002;2023-05-18T13:14:58;21.70;47.50
46720;DHT22;32452;51.382;-0.002;2023-05-18T13:17:59;21.50;48.00
46720;DHT22;32452;51.382;-0.002;2023-05-18T13:20:48;21.30;48.10
46720;DHT22;32452;51.382;-0.002;2023-05-18T13:23:35;21.10;48.50
46720;DHT22;32452;51.382;-0.002;2023-05-18T13:26:21;21.00;48.70
46720;DHT22;32452;51.382;-0.002;2023-05-18T13:29:07;20.90;49.00
46720;DHT22;32452;51.382;-0.002;2023-05-18T13:31:53;20.90;49.20
46720;DHT22;32452;51.382;-0.002;2023-05-18T13:34:38;20.70;49.40
46720;DHT22;32452;51.382;-0.002;2023-05-18T13:37:24;20.70;49.60
46720;DHT22;32452;51.382;-0.002;2023-05-18T13:40:10;20.60;49.70
46720;DHT22;32452;51.382;-0.002;2023-05-18T13:42:56;20.50;49.90
46720;DHT22;32452;51.382;-0.002;2023-05-18T13:45:42;20.50;50.30
46720;DHT22;32452;51.382;-0.002;2023-05-18T13:48:29;20.50;50.40
46720;DHT22;32452;51.382;-0.002;2023-05-18T13:51:14;20.60;50.50
46720;DHT22;32452;51.382;-0.002;2023-05-18T13:54:00;20.60;50.50
46720;DHT22;32452;51.382;-0.002;2023-05-18T13:56:47;20.70;50.90
46720;DHT22;32452;51.382;-0.002;2023-05-18T13:59:32;20.90;51.00
46720;DHT22;32452;51.382;-0.002;2023-05-18T14:02:19;21.10;50.40
46720;DHT22;32452;51.382;-0.002;2023-05-18T14:05:05;21.20;51.00
46720;DHT22;32452;51.382;-0.002;2023-05-18T14:07:53;21.30;50.40
46720;DHT22;32452;51.382;-0.002;2023-05-18T14:10:38;21.40;50.30
46720;DHT22;32452;51.382;-0.002;2023-05-18T14:13:24;21.40;50.20
46720;DHT22;32452;51.382;-0.002;2023-05-18T14:16:10;21.30;50.50
46720;DHT22;32452;51.382;-0.002;2023-05-18T14:18:56;21.40;50.40
46720;DHT22;32452;51.382;-0.002;2023-05-18T14:21:42;21.40;50.70
46720;DHT22;32452;51.382;-0.002;2023-05-18T14:24:27;21.20;50.10
46720;DHT22;32452;51.382;-0.002;2023-05-18T14:27:13;21.10;50.80
46720;DHT22;32452;51.382;-0.002;2023-05-18T14:29:59;21.10;50.50
46720;DHT22;32452;51.382;-0.002;2023-05-18T14:32:44;21.20;50.50
46720;DHT22;32452;51.382;-0.002;2023-05-18T14:35:30;21.30;50.40
46720;DHT22;32452;51.382;-0.002;2023-05-18T14:38:16;21.20;49.90
46720;DHT22;32452;51.382;-0.002;2023-05-18T14:41:01;21.00;50.70
46720;DHT22;32452;51.382;-0.002;2023-05-18T14:43:47;21.00;50.40
46720;DHT22;32452;51.382;-0.002;2023-05-18T14:46:35;21.10;50.50
46720;DHT22;32452;51.382;-0.002;2023-05-18T14:49:21;21.10;50.30
46720;DHT22;32452;51.382;-0.002;2023-05-18T14:52:06;21.00;50.10
46720;DHT22;32452;51.382;-0.002;2023-05-18T14:54:52;20.90;50.20
46720;DHT22;32452;51.382;-0.002;2023-05-18T14:57:38;20.80;50.50
46720;DHT22;32452;51.382;-0.002;2023-05-18T15:00:23;20.80;50.50
46720;DHT22;32452;51.382;-0.002;2023-05-18T15:03:09;20.80;50.50
46720;DHT22;32452;51.382;-0.002;2023-05-18T15:05:54;20.80;50.80
46720;DHT22;32452;51.382;-0.002;2023-05-18T15:08:40;20.80;50.70
46720;DHT22;32452;51.382;-0.002;2023-05-18T15:11:25;20.80;50.70
46720;DHT22;32452;51.382;-0.002;2023-05-18T15:14:11;20.80;50.80
46720;DHT22;32452;51.382;-0.002;2023-05-18T15:16:57;20.80;50.80
46720;DHT22;32452;51.382;-0.002;2023-05-18T15:19:43;20.70;50.80
46720;DHT22;32452;51.382;-0.002;2023-05-18T15:22:28;20.70;50.80
46720;DHT22;32452;51.382;-0.002;2023-05-18T15:25:14;20.60;50.80
46720;DHT22;32452;51.382;-0.002;2023-05-18T15:28:00;20.50;50.80
46720;DHT22;32452;51.382;-0.002;2023-05-18T15:30:45;20.40;50.80
46720;DHT22;32452;51.382;-0.002;2023-05-18T15:33:31;20.40;51.00
46720;DHT22;32452;51.382;-0.002;2023-05-18T15:36:17;20.50;51.30
46720;DHT22;32452;51.382;-0.002;2023-05-18T15:39:03;20.50;51.10
46720;DHT22;32452;51.382;-0.002;2023-05-18T15:41:49;20.50;50.80
46720;DHT22;32452;51.382;-0.002;2023-05-18T15:44:35;20.50;50.70
46720;DHT22;32452;51.382;-0.002;2023-05-18T15:47:21;20.40;50.90
46720;DHT22;32452;51.382;-0.002;2023-05-18T15:50:07;20.40;51.10
46720;DHT22;32452;51.382;-0.002;2023-05-18T15:52:53;20.40;51.00
46720;DHT22;32452;51.382;-0.002;2023-05-18T15:55:39;20.40;50.90
46720;DHT22;32452;51.382;-0.002;2023-05-18T15:58:24;20.30;51.00
46720;DHT22;32452;51.382;-0.002;2023-05-18T16:01:11;20.30;51.30
46720;DHT22;32452;51.382;-0.002;2023-05-18T16:03:56;20.20;51.70
46720;DHT22;32452;51.382;-0.002;2023-05-18T16:06:42;20.10;51.60
46720;DHT22;32452;51.382;-0.002;2023-05-18T16:09:27;20.00;52.40
46720;DHT22;32452;51.382;-0.002;2023-05-18T16:12:13;19.90;51.80
46720;DHT22;32452;51.382;-0.002;2023-05-18T16:14:59;19.70;52.20
46720;DHT22;32452;51.382;-0.002;2023-05-18T16:17:44;19.60;52.60
46720;DHT22;32452;51.382;-0.002;2023-05-18T16:20:30;19.50;52.80
46720;DHT22;32452;51.382;-0.002;2023-05-18T16:23:16;19.40;52.90
46720;DHT22;32452;51.382;-0.002;2023-05-18T16:26:02;19.40;53.00
46720;DHT22;32452;51.382;-0.002;2023-05-18T16:28:49;19.30;53.00
46720;DHT22;32452;51.382;-0.002;2023-05-18T16:31:35;19.30;53.20
46720;DHT22;32452;51.382;-0.002;2023-05-18T16:34:21;19.30;53.30
46720;DHT22;32452;51.382;-0.002;2023-05-18T16:37:06;19.20;53.20
46720;DHT22;32452;51.382;-0.002;2023-05-18T16:39:52;19.20;53.40
46720;DHT22;32452;51.382;-0.002;2023-05-18T16:42:40;19.10;53.60
46720;DHT22;32452;51.382;-0.002;2023-05-18T16:45:26;19.10;53.90
46720;DHT22;32452;51.382;-0.002;2023-05-18T16:48:12;19.10;54.00
46720;DHT22;32452;51.382;-0.002;2023-05-18T16:51:00;19.10;54.00
46720;DHT22;32452;51.382;-0.002;2023-05-18T16:53:46;19.00;54.10
46720;DHT22;32452;51.382;-0.002;2023-05-18T16:56:32;18.90;54.30
46720;DHT22;32452;51.382;-0.002;2023-05-18T16:59:20;18.90;54.50
46720;DHT22;32452;51.382;-0.002;2023-05-18T17:02:07;18.80;54.50
46720;DHT22;32452;51.382;-0.002;2023-05-18T17:04:58;18.70;54.60
46720;DHT22;32452;51.382;-0.002;2023-05-18T17:07:51;18.70;54.80
46720;DHT22;32452;51.382;-0.002;2023-05-18T17:10:37;18.60;54.90
46720;DHT22;32452;51.382;-0.002;2023-05-18T17:13:24;18.50;54.90
46720;DHT22;32452;51.382;-0.002;2023-05-18T17:16:11;18.50;55.00
46720;DHT22;32452;51.382;-0.002;2023-05-18T17:18:58;18.50;55.10
46720;DHT22;32452;51.382;-0.002;2023-05-18T17:21:44;18.40;55.20
46720;DHT22;32452;51.382;-0.002;2023-05-18T17:24:30;18.40;55.40
46720;DHT22;32452;51.382;-0.002;2023-05-18T17:27:17;18.40;55.40
46720;DHT22;32452;51.382;-0.002;2023-05-18T17:30:03;18.40;55.50
46720;DHT22;32452;51.382;-0.002;2023-05-18T17:32:50;18.40;55.70
46720;DHT22;32452;51.382;-0.002;2023-05-18T17:35:36;18.30;55.80